createdAt,value
2018-12-09T00:01:28.342Z,8.00
2018-12-09T00:03:56.916Z,7.80
2018-12-09T00:06:25.392Z,7.70
2018-12-09T00:08:53.861Z,7.70
2018-12-09T00:11:22.402Z,7.60
2018-12-09T00:13:50.777Z,7.60
2018-12-09T00:16:19.218Z,7.50
2018-12-09T00:18:47.680Z,7.50
2018-12-09T00:21:17.124Z,7.40
2018-12-09T00:23:45.787Z,7.40
2018-12-09T00:26:14.306Z,7.40
2018-12-09T00:28:42.751Z,7.40
2018-12-09T00:31:11.158Z,7.40
2018-12-09T00:33:39.735Z,7.40
2018-12-09T00:36:08.860Z,7.40
2018-12-09T00:38:37.303Z,7.30
2018-12-09T00:41:05.706Z,7.30
2018-12-09T00:43:34.087Z,7.20
2018-12-09T00:46:02.408Z,7.20
2018-12-09T00:48:30.925Z,7.20
2018-12-09T00:50:59.396Z,7.10
2018-12-09T00:53:27.715Z,7.10
2018-12-09T00:55:55.996Z,7.10
2018-12-09T00:58:24.292Z,7.00
2018-12-09T01:00:52.555Z,7.10
2018-12-09T01:03:20.880Z,7.20
2018-12-09T01:05:49.428Z,7.20
2018-12-09T01:08:17.997Z,7.30
2018-12-09T01:10:46.523Z,7.30
2018-12-09T01:13:15.366Z,7.40
2018-12-09T01:15:43.665Z,7.30
2018-12-09T01:18:12.066Z,7.30
2018-12-09T01:20:40.567Z,7.30
2018-12-09T01:23:09.457Z,7.30
2018-12-09T01:25:37.730Z,7.30
2018-12-09T01:28:05.993Z,7.30
2018-12-09T01:30:34.638Z,7.30
2018-12-09T01:33:02.977Z,7.30
2018-12-09T01:35:31.334Z,7.30
2018-12-09T01:37:59.998Z,7.30
2018-12-09T01:40:30.470Z,7.30
2018-12-09T01:42:58.780Z,7.40
2018-12-09T01:45:27.127Z,7.40
2018-12-09T01:47:56.132Z,7.40
2018-12-09T01:50:24.418Z,7.40
2018-12-09T01:52:59.308Z,7.50
2018-12-09T01:55:27.946Z,7.50
2018-12-09T01:57:56.459Z,7.50
2018-12-09T02:00:25.467Z,7.50
2018-12-09T02:02:53.863Z,7.50
2018-12-09T02:05:22.240Z,7.50
2018-12-09T02:07:51.266Z,7.50
2018-12-09T02:10:19.591Z,7.60
2018-12-09T02:12:48.009Z,7.60
2018-12-09T02:15:16.320Z,7.60
2018-12-09T02:17:45.180Z,7.50
2018-12-09T02:20:13.494Z,7.50
2018-12-09T02:22:41.888Z,7.60
2018-12-09T02:25:10.795Z,7.50
2018-12-09T02:27:39.502Z,7.50
2018-12-09T02:30:08.066Z,7.40
2018-12-09T02:32:36.392Z,7.40
2018-12-09T02:35:04.881Z,7.40
2018-12-09T02:37:39.805Z,7.30
2018-12-09T02:40:08.275Z,7.40
2018-12-09T02:42:36.868Z,7.30
2018-12-09T02:45:05.339Z,7.40
2018-12-09T02:47:33.611Z,7.40
2018-12-09T02:50:01.967Z,7.50
2018-12-09T02:52:30.326Z,7.50
2018-12-09T02:54:58.649Z,7.50
2018-12-09T02:57:27.031Z,7.60
2018-12-09T02:59:55.343Z,7.70
2018-12-09T03:02:23.605Z,7.80
2018-12-09T03:04:52.086Z,7.90
2018-12-09T03:07:20.392Z,7.80
2018-12-09T03:09:49.115Z,7.90
2018-12-09T03:12:17.384Z,7.80
2018-12-09T03:14:45.674Z,7.80
2018-12-09T03:17:13.970Z,7.90
2018-12-09T03:19:42.312Z,7.80
2018-12-09T03:22:10.638Z,7.90
2018-12-09T03:24:38.896Z,7.90
2018-12-09T03:29:41.910Z,7.90
2018-12-09T03:32:10.195Z,7.90
2018-12-09T03:34:38.620Z,7.90
2018-12-09T03:37:06.896Z,7.80
2018-12-09T03:39:35.140Z,7.80
2018-12-09T03:42:03.439Z,7.80
2018-12-09T03:44:31.741Z,7.80
2018-12-09T03:47:00.066Z,7.80
2018-12-09T03:49:28.460Z,7.80
2018-12-09T03:51:56.800Z,7.80
2018-12-09T03:54:25.223Z,7.80
2018-12-09T03:56:53.852Z,7.80
2018-12-09T03:59:22.551Z,7.80
2018-12-09T04:01:50.914Z,7.80
2018-12-09T04:04:19.214Z,7.80
2018-12-09T04:06:47.479Z,7.80
2018-12-09T04:09:15.744Z,7.80
2018-12-09T04:11:44.036Z,7.80
2018-12-09T04:14:12.334Z,7.80
2018-12-09T04:16:40.783Z,7.80
2018-12-09T04:19:09.095Z,7.80
2018-12-09T04:21:37.416Z,7.80
2018-12-09T04:24:05.692Z,7.80
2018-12-09T04:26:34.780Z,7.90
2018-12-09T04:29:03.169Z,7.90
2018-12-09T04:31:31.666Z,8.00
2018-12-09T04:33:59.932Z,8.00
2018-12-09T04:36:28.167Z,8.00
2018-12-09T04:38:56.420Z,8.00
2018-12-09T04:41:24.790Z,8.00
2018-12-09T04:43:53.356Z,8.00
2018-12-09T04:46:21.599Z,8.00
2018-12-09T04:48:49.868Z,7.90
2018-12-09T04:51:18.250Z,7.90
2018-12-09T04:53:46.528Z,7.90
2018-12-09T04:56:14.811Z,7.90
2018-12-09T04:59:23.727Z,7.90
2018-12-09T05:01:52.186Z,7.80
2018-12-09T05:04:20.459Z,7.80
2018-12-09T05:06:48.847Z,7.80
2018-12-09T05:09:17.134Z,7.80
2018-12-09T05:11:45.507Z,7.90
2018-12-09T05:14:13.803Z,7.90
2018-12-09T05:16:42.286Z,7.90
2018-12-09T05:19:10.606Z,8.00
2018-12-09T05:21:38.864Z,8.00
2018-12-09T05:24:07.371Z,8.00
2018-12-09T05:26:35.654Z,8.00
2018-12-09T05:29:04.092Z,7.90
2018-12-09T05:31:32.347Z,7.80
2018-12-09T05:34:00.603Z,7.80
2018-12-09T05:36:29.150Z,7.70
2018-12-09T05:38:57.591Z,7.60
2018-12-09T05:41:25.867Z,7.50
2018-12-09T05:43:54.434Z,7.50
2018-12-09T05:46:22.695Z,7.40
2018-12-09T05:48:50.976Z,7.40
2018-12-09T05:51:19.271Z,7.30
2018-12-09T05:53:47.574Z,7.30
2018-12-09T05:56:15.902Z,7.30
2018-12-09T05:58:44.236Z,7.30
2018-12-09T06:01:12.492Z,7.40
2018-12-09T06:03:40.790Z,7.40
2018-12-09T06:06:09.047Z,7.60
2018-12-09T06:08:37.310Z,7.60
2018-12-09T06:11:05.611Z,7.60
2018-12-09T06:13:34.001Z,7.60
2018-12-09T06:16:02.412Z,7.60
2018-12-09T06:18:30.757Z,7.60
2018-12-09T06:20:58.988Z,7.60
2018-12-09T06:23:27.387Z,7.60
2018-12-09T06:25:55.667Z,7.70
2018-12-09T06:28:25.310Z,7.80
2018-12-09T06:30:53.767Z,7.70
2018-12-09T06:33:22.017Z,7.60
2018-12-09T06:35:50.816Z,7.50
2018-12-09T06:38:19.077Z,7.50
2018-12-09T06:40:47.364Z,7.40
2018-12-09T06:43:16.758Z,7.40
2018-12-09T06:45:45.043Z,7.30
2018-12-09T06:48:13.706Z,7.40
2018-12-09T06:50:42.203Z,7.40
2018-12-09T06:53:10.548Z,7.50
2018-12-09T06:55:39.531Z,7.50
2018-12-09T06:58:08.707Z,7.50
2018-12-09T07:00:37.346Z,7.50
2018-12-09T07:03:05.602Z,7.50
2018-12-09T07:05:33.864Z,7.50
2018-12-09T07:08:03.424Z,7.50
2018-12-09T07:10:31.747Z,7.50
2018-12-09T07:13:00.463Z,7.50
2018-12-09T07:15:28.739Z,7.50
2018-12-09T07:17:57.313Z,7.50
2018-12-09T07:20:25.924Z,7.50
2018-12-09T07:22:54.660Z,7.50
2018-12-09T07:25:23.285Z,7.60
2018-12-09T07:27:51.620Z,7.60
2018-12-09T07:30:20.063Z,7.50
2018-12-09T07:32:48.380Z,7.60
2018-12-09T07:35:16.758Z,7.50
2018-12-09T07:37:45.065Z,7.50
2018-12-09T07:40:13.704Z,7.50
2018-12-09T07:42:42.123Z,7.50
2018-12-09T07:45:10.475Z,7.50
2018-12-09T07:47:38.890Z,7.50
2018-12-09T07:50:07.376Z,7.50
2018-12-09T07:52:35.715Z,7.50
2018-12-09T07:55:04.154Z,7.60
2018-12-09T07:57:32.425Z,7.60
2018-12-09T08:00:00.891Z,7.60
2018-12-09T08:02:29.292Z,7.60
2018-12-09T08:04:57.686Z,7.60
2018-12-09T08:07:26.075Z,7.60
2018-12-09T08:09:54.780Z,7.70
2018-12-09T08:12:23.410Z,7.70
2018-12-09T08:14:51.686Z,7.70
2018-12-09T08:17:20.007Z,7.70
2018-12-09T08:19:48.296Z,7.70
2018-12-09T08:22:16.520Z,7.70
2018-12-09T08:24:45.765Z,7.60
2018-12-09T08:27:14.594Z,7.70
2018-12-09T08:29:42.855Z,7.70
2018-12-09T08:32:11.207Z,7.70
2018-12-09T08:34:39.505Z,7.70
2018-12-09T08:37:07.830Z,7.70
2018-12-09T08:39:36.218Z,7.60
2018-12-09T08:42:04.507Z,7.60
2018-12-09T08:44:33.066Z,7.50
2018-12-09T08:47:01.503Z,7.50
2018-12-09T08:49:29.983Z,7.40
2018-12-09T08:51:59.894Z,7.40
2018-12-09T08:54:28.294Z,7.30
2018-12-09T08:56:56.621Z,7.30
2018-12-09T08:59:24.956Z,7.20
2018-12-09T09:01:53.621Z,7.10
2018-12-09T09:04:23.085Z,7.10
2018-12-09T09:06:51.392Z,7.10
2018-12-09T09:09:19.688Z,7.10
2018-12-09T09:11:47.990Z,7.00
2018-12-09T09:14:16.334Z,7.00
2018-12-09T09:16:44.864Z,7.00
2018-12-09T09:19:13.147Z,7.00
2018-12-09T09:21:41.401Z,7.00
2018-12-09T09:24:09.790Z,7.00
2018-12-09T09:26:38.122Z,7.10
2018-12-09T09:29:06.398Z,7.10
2018-12-09T09:31:34.673Z,7.10
2018-12-09T09:34:03.008Z,7.20
2018-12-09T09:36:31.365Z,7.30
2018-12-09T09:38:59.722Z,7.30
2018-12-09T09:41:28.174Z,7.30
2018-12-09T09:43:56.466Z,7.40
2018-12-09T09:46:24.710Z,7.40
2018-12-09T09:48:53.062Z,7.50
2018-12-09T09:51:21.365Z,7.50
2018-12-09T09:53:49.678Z,7.50
2018-12-09T09:56:18.001Z,7.50
2018-12-09T09:58:46.279Z,7.50
2018-12-09T10:01:14.566Z,7.50
2018-12-09T10:03:42.953Z,7.60
2018-12-09T10:06:11.284Z,7.60
2018-12-09T10:08:39.592Z,7.60
2018-12-09T10:11:07.936Z,7.60
2018-12-09T10:13:36.238Z,7.70
2018-12-09T10:16:04.590Z,7.70
2018-12-09T10:18:32.890Z,7.70
2018-12-09T10:21:01.151Z,7.60
2018-12-09T10:23:29.476Z,7.60
2018-12-09T10:25:57.736Z,7.60
2018-12-09T10:28:26.028Z,7.50
2018-12-09T10:30:54.373Z,7.50
2018-12-09T10:33:22.713Z,7.40
2018-12-09T10:35:51.107Z,7.40
2018-12-09T10:38:19.424Z,7.30
2018-12-09T10:40:47.774Z,7.30
2018-12-09T10:43:16.139Z,7.30
2018-12-09T10:45:47.305Z,7.20
2018-12-09T10:48:15.738Z,7.20
2018-12-09T10:50:45.203Z,7.20
2018-12-09T10:53:13.735Z,7.20
2018-12-09T10:55:42.194Z,7.20
2018-12-09T10:58:11.215Z,7.20
2018-12-09T11:01:47.407Z,7.20
2018-12-09T11:04:17.139Z,7.20
2018-12-09T11:06:45.631Z,7.20
2018-12-09T11:09:14.345Z,7.20
2018-12-09T11:11:42.913Z,7.20
2018-12-09T11:14:11.379Z,7.30
2018-12-09T11:16:40.450Z,7.20
2018-12-09T11:19:08.910Z,7.20
2018-12-09T11:21:37.418Z,7.20
2018-12-09T11:24:05.851Z,7.30
2018-12-09T11:26:34.276Z,7.30
2018-12-09T11:29:03.092Z,7.40
2018-12-09T11:31:32.825Z,7.40
2018-12-09T11:34:01.182Z,7.40
2018-12-09T11:36:30.598Z,7.40
2018-12-09T11:38:59.054Z,7.50
2018-12-09T11:41:27.934Z,7.50
2018-12-09T11:43:56.510Z,7.50
2018-12-09T11:46:25.221Z,7.50
2018-12-09T11:48:53.486Z,7.60
2018-12-09T11:51:22.498Z,7.60
2018-12-09T11:53:50.858Z,7.60
2018-12-09T11:56:21.260Z,7.60
2018-12-09T11:58:50.048Z,7.60
2018-12-09T12:01:18.463Z,7.70
2018-12-09T12:03:46.810Z,7.70
2018-12-09T12:06:15.137Z,7.70
2018-12-09T12:08:43.734Z,7.70
2018-12-09T12:11:13.296Z,7.70
2018-12-09T12:13:42.074Z,7.70
2018-12-09T12:16:13.110Z,7.70
2018-12-09T12:18:42.601Z,7.70
2018-12-09T12:21:15.188Z,7.80
2018-12-09T12:23:46.061Z,7.80
2018-12-09T12:26:14.910Z,7.90
2018-12-09T12:28:43.488Z,7.90
2018-12-09T12:31:11.841Z,8.00
2018-12-09T12:33:43.936Z,8.10
2018-12-09T12:36:12.751Z,8.10
2018-12-09T12:38:41.040Z,8.00
2018-12-09T12:41:09.398Z,8.00
2018-12-09T12:43:38.022Z,7.90
2018-12-09T12:46:06.747Z,7.90
2018-12-09T12:48:35.259Z,7.80
2018-12-09T12:51:03.848Z,7.80
2018-12-09T12:53:32.313Z,7.80
2018-12-09T12:56:02.411Z,7.70
2018-12-09T12:58:30.863Z,7.70
2018-12-09T13:00:59.097Z,7.80
2018-12-09T13:03:27.410Z,7.80
2018-12-09T13:05:55.897Z,7.90
2018-12-09T13:08:24.383Z,7.90
2018-12-09T13:10:52.740Z,7.90
2018-12-09T13:13:21.033Z,7.90
2018-12-09T13:15:49.342Z,7.90
2018-12-09T13:18:17.676Z,7.90
2018-12-09T13:20:45.978Z,7.90
2018-12-09T13:23:15.363Z,7.80
2018-12-09T13:25:43.908Z,7.80
2018-12-09T13:28:12.317Z,7.80
2018-12-09T13:30:40.644Z,7.80
2018-12-09T13:33:09.059Z,7.90
2018-12-09T13:35:37.428Z,7.90
2018-12-09T13:38:05.705Z,7.90
2018-12-09T13:40:33.991Z,7.90
2018-12-09T13:43:02.326Z,7.90
2018-12-09T13:45:30.618Z,8.00
2018-12-09T13:47:59.059Z,8.00
2018-12-09T13:50:27.365Z,8.00
2018-12-09T13:52:58.399Z,8.00
2018-12-09T13:55:28.924Z,8.00
2018-12-09T13:57:59.654Z,8.00
2018-12-09T14:00:31.050Z,8.10
2018-12-09T14:03:01.816Z,8.10
2018-12-09T14:05:32.450Z,8.10
2018-12-09T14:08:00.947Z,8.10
2018-12-09T14:10:29.271Z,8.10
2018-12-09T14:12:57.617Z,8.10
2018-12-09T14:15:25.899Z,8.00
2018-12-09T14:17:54.159Z,8.00
2018-12-09T14:20:22.481Z,7.90
2018-12-09T14:22:50.766Z,7.80
2018-12-09T14:25:19.094Z,7.80
2018-12-09T14:27:47.454Z,7.80
2018-12-09T14:30:15.858Z,7.80
2018-12-09T14:32:44.158Z,7.70
2018-12-09T14:35:12.499Z,7.70
2018-12-09T14:37:40.771Z,7.70
2018-12-09T14:40:10.475Z,7.70
2018-12-09T14:42:38.755Z,7.70
2018-12-09T14:45:08.979Z,7.70
2018-12-09T14:47:37.429Z,7.60
2018-12-09T14:50:08.550Z,7.60
2018-12-09T14:52:37.370Z,7.60
2018-12-09T14:55:05.996Z,7.60
2018-12-09T14:57:34.308Z,7.60
2018-12-09T15:00:02.731Z,7.60
2018-12-09T15:02:31.019Z,7.60
2018-12-09T15:04:59.331Z,7.50
2018-12-09T15:07:27.745Z,7.50
2018-12-09T15:09:56.561Z,7.50
2018-12-09T15:12:25.393Z,7.50
2018-12-09T15:14:54.393Z,7.50
2018-12-09T15:17:22.748Z,7.50
2018-12-09T15:19:51.018Z,7.40
2018-12-09T15:22:19.343Z,7.40
2018-12-09T15:24:47.620Z,7.30
2018-12-09T15:27:15.948Z,7.30
2018-12-09T15:29:44.862Z,7.30
2018-12-09T15:32:13.248Z,7.30
2018-12-09T15:34:41.547Z,7.30
2018-12-09T15:37:09.965Z,7.30
2018-12-09T15:39:39.768Z,7.20
2018-12-09T15:42:08.707Z,7.20
2018-12-09T15:44:38.536Z,7.10
2018-12-09T15:47:08.447Z,7.10
2018-12-09T15:49:36.888Z,7.10
2018-12-09T15:52:06.118Z,7.00
2018-12-09T15:54:34.829Z,7.00
2018-12-09T15:57:03.466Z,7.10
2018-12-09T15:59:32.494Z,7.10
2018-12-09T16:02:02.267Z,7.10
2018-12-09T16:04:30.853Z,7.10
2018-12-09T16:06:59.172Z,7.10
2018-12-09T16:09:27.524Z,7.10
2018-12-09T16:11:55.947Z,7.20
2018-12-09T16:14:24.408Z,7.10
2018-12-09T16:16:53.282Z,7.10
2018-12-09T16:19:21.782Z,7.00
2018-12-09T16:21:50.231Z,7.00
2018-12-09T16:24:18.585Z,7.00
2018-12-09T16:26:47.160Z,7.00
2018-12-09T16:29:15.695Z,6.90
2018-12-09T16:31:44.160Z,6.90
2018-12-09T16:34:12.442Z,6.90
2018-12-09T16:36:40.880Z,6.80
2018-12-09T16:39:09.184Z,6.80
2018-12-09T16:41:37.502Z,6.80
2018-12-09T16:44:05.841Z,6.80
2018-12-09T16:46:34.315Z,6.80
2018-12-09T16:49:05.604Z,6.80
2018-12-09T16:51:33.970Z,6.80
2018-12-09T16:54:02.371Z,6.80
2018-12-09T16:56:31.448Z,6.80
2018-12-09T16:58:59.844Z,6.80
2018-12-09T17:01:28.446Z,6.80
2018-12-09T17:03:56.768Z,6.70
2018-12-09T17:06:25.943Z,6.80
2018-12-09T17:08:54.339Z,6.80
2018-12-09T17:11:22.759Z,6.80
2018-12-09T17:13:51.398Z,6.80
2018-12-09T17:16:19.939Z,6.80
2018-12-09T17:18:48.362Z,6.80
2018-12-09T17:21:16.721Z,6.80
2018-12-09T17:23:46.009Z,6.90
2018-12-09T17:26:14.350Z,6.90
2018-12-09T17:28:42.640Z,6.90
2018-12-09T17:31:11.545Z,6.90
2018-12-09T17:33:41.668Z,6.90
2018-12-09T17:36:10.134Z,6.90
2018-12-09T17:38:38.560Z,6.90
2018-12-09T17:41:06.874Z,6.80
2018-12-09T17:43:35.255Z,6.80
2018-12-09T17:46:03.740Z,6.80
2018-12-09T17:48:32.012Z,6.80
2018-12-09T17:51:01.773Z,6.80
2018-12-09T17:53:30.661Z,6.80
2018-12-09T17:55:59.876Z,6.80
2018-12-09T17:58:28.236Z,6.90
2018-12-09T18:00:56.552Z,6.80
2018-12-09T18:03:24.823Z,6.80
2018-12-09T18:05:53.118Z,6.80
2018-12-09T18:08:21.435Z,6.80
2018-12-09T18:10:49.737Z,6.80
2018-12-09T18:13:18.100Z,6.80
2018-12-09T18:15:50.694Z,6.80
2018-12-09T18:18:20.268Z,6.80
2018-12-09T18:20:48.720Z,6.80
2018-12-09T18:23:19.162Z,6.80
2018-12-09T18:25:47.537Z,6.90
2018-12-09T18:28:16.770Z,6.90
2018-12-09T18:30:45.430Z,6.90
2018-12-09T18:33:14.246Z,6.90
2018-12-09T18:35:42.630Z,6.90
2018-12-09T18:38:12.242Z,6.90
2018-12-09T18:40:40.551Z,6.80
2018-12-09T18:43:09.863Z,6.80
2018-12-09T18:45:38.199Z,6.80
2018-12-09T18:48:06.791Z,6.80
2018-12-09T18:50:35.782Z,6.90
2018-12-09T18:53:04.081Z,6.90
2018-12-09T18:55:32.547Z,6.90
2018-12-09T18:58:00.855Z,6.90
2018-12-09T19:00:29.173Z,6.90
2018-12-09T19:02:57.547Z,6.90
2018-12-09T19:05:25.864Z,7.00
2018-12-09T19:07:54.283Z,7.00
2018-12-09T19:10:22.613Z,7.00
2018-12-09T19:12:51.544Z,7.00
2018-12-09T19:15:19.921Z,6.90
2018-12-09T19:17:48.228Z,6.90
2018-12-09T19:20:16.606Z,6.90
2018-12-09T19:22:44.877Z,6.80
2018-12-09T19:25:14.201Z,6.80
2018-12-09T19:27:42.484Z,6.70
2018-12-09T19:30:10.998Z,6.60
2018-12-09T19:32:39.819Z,6.60
2018-12-09T19:35:08.105Z,6.50
2018-12-09T19:37:36.471Z,6.50
2018-12-09T19:40:05.536Z,6.50
2018-12-09T19:42:33.890Z,6.40
2018-12-09T19:45:08.589Z,6.40
2018-12-09T19:47:36.916Z,6.30
2018-12-09T19:50:05.491Z,6.20
2018-12-09T19:52:33.921Z,6.20
2018-12-09T19:55:02.223Z,6.20
2018-12-09T19:57:30.906Z,6.20
2018-12-09T19:59:59.309Z,6.10
2018-12-09T20:02:27.730Z,6.10
2018-12-09T20:04:56.063Z,6.10
2018-12-09T20:07:24.413Z,6.10
2018-12-09T20:09:52.734Z,6.00
2018-12-09T20:12:21.339Z,6.00
2018-12-09T20:14:49.630Z,6.00
2018-12-09T20:17:17.965Z,6.10
2018-12-09T20:19:46.265Z,6.10
2018-12-09T20:22:14.731Z,6.10
2018-12-09T20:24:43.838Z,6.20
2018-12-09T20:27:12.252Z,6.30
2018-12-09T20:29:40.658Z,6.30
2018-12-09T20:32:09.328Z,6.30
2018-12-09T20:34:37.680Z,6.30
2018-12-09T20:37:06.128Z,6.30
2018-12-09T20:39:34.438Z,6.30
2018-12-09T20:42:02.792Z,6.20
2018-12-09T20:44:31.094Z,6.20
2018-12-09T20:46:59.948Z,6.20
2018-12-09T20:49:28.216Z,6.20
2018-12-09T20:51:56.590Z,6.10
2018-12-09T20:54:24.955Z,6.00
2018-12-09T20:56:53.308Z,6.00
2018-12-09T20:59:21.584Z,5.90
2018-12-09T21:01:49.890Z,5.90
2018-12-09T21:04:18.148Z,5.80
2018-12-09T21:06:47.142Z,5.80
2018-12-09T21:09:15.438Z,5.80
2018-12-09T21:11:43.732Z,5.80
2018-12-09T21:14:12.003Z,5.80
2018-12-09T21:16:40.332Z,5.90
2018-12-09T21:19:08.663Z,5.90
2018-12-09T21:21:36.980Z,5.90
2018-12-09T21:24:05.329Z,5.90
2018-12-09T21:26:33.725Z,6.00
2018-12-09T21:29:02.024Z,6.00
2018-12-09T21:31:30.428Z,6.00
2018-12-09T21:33:58.743Z,6.00
2018-12-09T21:36:27.070Z,6.00
2018-12-09T21:38:55.450Z,6.00
2018-12-09T21:41:23.745Z,6.00
2018-12-09T21:43:52.213Z,5.90
2018-12-09T21:46:20.556Z,5.90
2018-12-09T21:48:49.144Z,5.90
2018-12-09T21:51:17.435Z,5.90
2018-12-09T21:53:45.823Z,5.90
2018-12-09T21:56:14.157Z,5.80
2018-12-09T21:58:42.454Z,5.80
2018-12-09T22:01:10.797Z,5.80
2018-12-09T22:03:39.115Z,5.80
2018-12-09T22:06:08.941Z,5.80
2018-12-09T22:08:37.254Z,5.70
2018-12-09T22:11:05.643Z,5.70
2018-12-09T22:13:34.091Z,5.70
2018-12-09T22:16:02.425Z,5.70
2018-12-09T22:18:37.447Z,5.70
2018-12-09T22:21:05.826Z,5.70
2018-12-09T22:23:34.111Z,5.70
2018-12-09T22:26:02.357Z,5.70
2018-12-09T22:28:30.660Z,5.60
2018-12-09T22:30:58.927Z,5.60
2018-12-09T22:33:27.274Z,5.60
2018-12-09T22:35:55.587Z,5.70
2018-12-09T22:38:24.197Z,5.60
2018-12-09T22:40:52.525Z,5.60
2018-12-09T22:43:20.814Z,5.60
2018-12-09T22:45:49.100Z,5.60
2018-12-09T22:48:17.479Z,5.60
2018-12-09T22:50:45.766Z,5.50
2018-12-09T22:53:14.098Z,5.40
2018-12-09T22:55:42.480Z,5.50
2018-12-09T22:58:10.783Z,5.50
2018-12-09T23:00:45.284Z,5.50
2018-12-09T23:03:13.697Z,5.50
2018-12-09T23:05:42.103Z,5.50
2018-12-09T23:08:10.415Z,5.50
2018-12-09T23:10:38.671Z,5.50
2018-12-09T23:13:08.037Z,5.50
2018-12-09T23:15:36.358Z,5.40
2018-12-09T23:18:05.376Z,5.30
2018-12-09T23:20:40.086Z,5.30
2018-12-09T23:23:08.546Z,5.20
2018-12-09T23:25:37.437Z,5.20
2018-12-09T23:28:06.510Z,5.20
2018-12-09T23:30:36.489Z,5.10
2018-12-09T23:33:04.771Z,5.00
2018-12-09T23:38:18.225Z,5.00
2018-12-09T23:40:46.534Z,5.00
2018-12-09T23:43:16.288Z,5.00
2018-12-09T23:45:44.610Z,4.90
2018-12-09T23:48:14.577Z,4.90
2018-12-09T23:50:45.792Z,4.90
2018-12-09T23:53:14.306Z,4.90
2018-12-09T23:55:48.348Z,4.90
2018-12-09T23:58:18.105Z,4.80
